sensor_id;sensor_type;location;lat;lon;timestamp;pressure;altitude;pressure_sealevel;temperature;humidity
81802;BME280;71199;52.490;5.448;2024-03-23T00:53:26;101121.84;;;5.98;100.00
81802;BME280;71199;52.490;5.448;2024-03-23T00:55:51;101124.56;;;5.98;100.00
81802;BME280;71199;52.490;5.448;2024-03-23T00:58:16;101123.16;;;6.04;100.00
81802;BME280;71199;52.490;5.448;2024-03-23T01:00:43;101115.53;;;5.98;100.00
81802;BME280;71199;52.490;5.448;2024-03-23T01:03:08;101117.56;;;6.05;100.00
81802;BME280;71199;52.490;5.448;2024-03-23T01:05:33;101122.19;;;6.15;100.00
81802;BME280;71199;52.490;5.448;2024-03-23T01:07:59;101109.28;;;6.17;100.00
81802;BME280;71199;52.490;5.448;2024-03-23T01:10:24;101102.38;;;6.13;100.00
81802;BME280;71199;52.490;5.448;2024-03-23T01:12:49;101095.03;;;6.13;100.00
81802;BME280;71199;52.490;5.448;2024-03-23T01:15:15;101092.91;;;6.17;100.00
81802;BME280;71199;52.490;5.448;2024-03-23T01:17:40;101086.97;;;6.02;100.00
81802;BME280;71199;52.490;5.448;2024-03-23T01:20:06;101075.84;;;5.94;100.00
81802;BME280;71199;52.490;5.448;2024-03-23T01:22:31;101075.97;;;5.92;100.00
81802;BME280;71199;52.490;5.448;2024-03-23T01:24:57;101073.03;;;5.95;100.00
81802;BME280;71199;52.490;5.448;2024-03-23T01:27:23;101062.34;;;5.92;100.00
81802;BME280;71199;52.490;5.448;2024-03-23T01:29:48;101065.19;;;5.91;100.00
81802;BME280;71199;52.490;5.448;2024-03-23T01:32:13;101057.91;;;5.91;100.00
81802;BME280;71199;52.490;5.448;2024-03-23T01:34:39;101065.72;;;5.75;100.00
81802;BME280;71199;52.490;5.448;2024-03-23T01:37:04;101060.00;;;5.78;100.00
81802;BME280;71199;52.490;5.448;2024-03-23T01:39:30;101052.91;;;5.65;100.00
81802;BME280;71199;52.490;5.448;2024-03-23T01:41:55;101052.47;;;5.60;100.00
81802;BME280;71199;52.490;5.448;2024-03-23T01:44:20;101056.47;;;5.66;100.00
81802;BME280;71199;52.490;5.448;2024-03-23T01:46:46;101050.31;;;5.64;100.00
81802;BME280;71199;52.490;5.448;2024-03-23T01:49:12;101049.09;;;5.78;100.00
81802;BME280;71199;52.490;5.448;2024-03-23T01:51:38;101056.09;;;5.71;100.00
81802;BME280;71199;52.490;5.448;2024-03-23T01:54:05;101054.78;;;5.65;100.00
81802;BME280;71199;52.490;5.448;2024-03-23T01:56:33;101047.75;;;5.72;100.00
81802;BME280;71199;52.490;5.448;2024-03-23T01:59:03;101039.03;;;5.78;100.00
81802;BME280;71199;52.490;5.448;2024-03-23T02:01:29;101034.63;;;5.87;100.00
81802;BME280;71199;52.490;5.448;2024-03-23T02:03:55;101036.16;;;5.80;100.00
81802;BME280;71199;52.490;5.448;2024-03-23T02:06:21;101033.00;;;5.75;100.00
81802;BME280;71199;52.490;5.448;2024-03-23T02:08:47;101024.53;;;5.78;100.00
81802;BME280;71199;52.490;5.448;2024-03-23T02:11:13;101024.09;;;5.73;100.00
81802;BME280;71199;52.490;5.448;2024-03-23T02:13:38;101025.94;;;5.72;100.00
81802;BME280;71199;52.490;5.448;2024-03-23T02:16:05;101021.50;;;5.71;100.00
81802;BME280;71199;52.490;5.448;2024-03-23T02:18:30;101028.84;;;5.71;100.00
81802;BME280;71199;52.490;5.448;2024-03-23T02:20:56;101026.84;;;5.73;100.00
81802;BME280;71199;52.490;5.448;2024-03-23T02:23:21;101022.59;;;5.59;100.00
81802;BME280;71199;52.490;5.448;2024-03-23T02:25:46;101021.28;;;5.53;100.00
81802;BME280;71199;52.490;5.448;2024-03-23T02:28:12;101021.59;;;5.60;100.00
81802;BME280;71199;52.490;5.448;2024-03-23T02:30:38;101018.56;;;5.53;100.00
81802;BME280;71199;52.490;5.448;2024-03-23T02:33:03;101020.69;;;5.50;100.00
81802;BME280;71199;52.490;5.448;2024-03-23T02:35:29;101022.28;;;5.52;100.00
81802;BME280;71199;52.490;5.448;2024-03-23T02:37:55;101017.81;;;5.51;100.00
81802;BME280;71199;52.490;5.448;2024-03-23T02:40:23;101016.72;;;5.63;100.00
81802;BME280;71199;52.490;5.448;2024-03-23T02:42:48;101016.13;;;5.50;100.00
81802;BME280;71199;52.490;5.448;2024-03-23T02:45:14;101014.28;;;5.60;100.00
81802;BME280;71199;52.490;5.448;2024-03-23T02:47:39;101014.97;;;5.53;100.00
81802;BME280;71199;52.490;5.448;2024-03-23T02:50:05;101006.00;;;5.41;100.00
81802;BME280;71199;52.490;5.448;2024-03-23T02:52:30;100996.38;;;5.37;100.00
81802;BME280;71199;52.490;5.448;2024-03-23T02:54:56;100998.13;;;5.38;100.00
81802;BME280;71199;52.490;5.448;2024-03-23T02:57:21;100999.59;;;5.42;100.00
81802;BME280;71199;52.490;5.448;2024-03-23T02:59:47;100988.81;;;5.40;100.00
81802;BME280;71199;52.490;5.448;2024-03-23T03:02:13;100985.19;;;5.30;100.00
81802;BME280;71199;52.490;5.448;2024-03-23T03:04:39;100985.78;;;5.34;100.00
81802;BME280;71199;52.490;5.448;2024-03-23T03:07:04;100987.03;;;5.30;100.00
81802;BME280;71199;52.490;5.448;2024-03-23T03:09:30;100994.91;;;5.23;100.00
81802;BME280;71199;52.490;5.448;2024-03-23T03:11:55;100994.03;;;5.22;100.00
81802;BME280;71199;52.490;5.448;2024-03-23T03:14:20;100991.59;;;5.19;100.00
81802;BME280;71199;52.490;5.448;2024-03-23T03:16:46;100984.03;;;5.33;100.00
81802;BME280;71199;52.490;5.448;2024-03-23T03:19:11;100988.88;;;5.29;100.00
81802;BME280;71199;52.490;5.448;2024-03-23T03:21:36;100987.63;;;5.33;100.00
81802;BME280;71199;52.490;5.448;2024-03-23T03:24:03;100989.78;;;5.30;100.00
81802;BME280;71199;52.490;5.448;2024-03-23T03:26:29;100990.09;;;5.36;100.00
81802;BME280;71199;52.490;5.448;2024-03-23T03:28:54;100990.75;;;5.29;100.00
81802;BME280;71199;52.490;5.448;2024-03-23T03:31:20;100987.47;;;5.35;100.00
81802;BME280;71199;52.490;5.448;2024-03-23T03:33:45;100980.50;;;5.42;100.00
81802;BME280;71199;52.490;5.448;2024-03-23T03:36:11;100975.22;;;5.50;100.00
81802;BME280;71199;52.490;5.448;2024-03-23T03:38:36;100986.38;;;5.47;100.00
81802;BME280;71199;52.490;5.448;2024-03-23T03:41:02;100982.75;;;5.37;100.00
81802;BME280;71199;52.490;5.448;2024-03-23T03:43:28;100985.63;;;5.35;100.00
81802;BME280;71199;52.490;5.448;2024-03-23T03:45:54;100984.94;;;5.43;100.00
81802;BME280;71199;52.490;5.448;2024-03-23T03:48:20;100971.81;;;5.27;100.00
81802;BME280;71199;52.490;5.448;2024-03-23T03:50:45;100972.50;;;5.19;100.00
81802;BME280;71199;52.490;5.448;2024-03-23T03:53:10;100969.69;;;5.31;100.00
81802;BME280;71199;52.490;5.448;2024-03-23T03:55:36;100974.88;;;5.34;100.00
81802;BME280;71199;52.490;5.448;2024-03-23T03:58:02;100962.66;;;5.28;100.00
81802;BME280;71199;52.490;5.448;2024-03-23T04:00:27;100962.22;;;5.23;100.00
81802;BME280;71199;52.490;5.448;2024-03-23T04:02:52;100959.31;;;5.15;100.00
81802;BME280;71199;52.490;5.448;2024-03-23T04:05:18;100944.06;;;5.12;100.00
81802;BME280;71199;52.490;5.448;2024-03-23T04:07:44;100944.03;;;5.02;100.00
81802;BME280;71199;52.490;5.448;2024-03-23T04:10:09;100942.59;;;4.98;100.00
81802;BME280;71199;52.490;5.448;2024-03-23T04:12:35;100936.78;;;4.92;100.00
81802;BME280;71199;52.490;5.448;2024-03-23T04:15:00;100939.44;;;5.03;100.00
81802;BME280;71199;52.490;5.448;2024-03-23T04:17:28;100936.25;;;4.98;100.00
81802;BME280;71199;52.490;5.448;2024-03-23T04:19:57;100948.34;;;5.05;100.00
81802;BME280;71199;52.490;5.448;2024-03-23T04:22:23;100939.13;;;4.96;100.00
81802;BME280;71199;52.490;5.448;2024-03-23T04:24:54;100929.50;;;4.92;100.00
81802;BME280;71199;52.490;5.448;2024-03-23T04:27:20;100925.03;;;4.91;100.00
81802;BME280;71199;52.490;5.448;2024-03-23T04:29:52;100929.09;;;4.97;100.00
81802;BME280;71199;52.490;5.448;2024-03-23T04:32:20;100935.50;;;4.86;100.00
81802;BME280;71199;52.490;5.448;2024-03-23T04:34:46;100938.16;;;4.76;100.00
81802;BME280;71199;52.490;5.448;2024-03-23T04:37:11;100934.94;;;4.71;100.00
81802;BME280;71199;52.490;5.448;2024-03-23T04:39:37;100934.28;;;4.58;100.00
81802;BME280;71199;52.490;5.448;2024-03-23T04:42:03;100930.91;;;4.66;100.00
81802;BME280;71199;52.490;5.448;2024-03-23T04:44:28;100941.72;;;4.77;100.00
81802;BME280;71199;52.490;5.448;2024-03-23T04:46:54;100935.81;;;4.93;100.00
81802;BME280;71199;52.490;5.448;2024-03-23T04:49:19;100937.16;;;5.08;100.00
81802;BME280;71199;52.490;5.448;2024-03-23T04:51:45;100933.34;;;5.20;100.00
81802;BME280;71199;52.490;5.448;2024-03-23T04:54:14;100930.69;;;5.30;100.00
81802;BME280;71199;52.490;5.448;2024-03-23T04:56:40;100933.81;;;5.25;100.00
81802;BME280;71199;52.490;5.448;2024-03-23T04:59:05;100931.94;;;5.26;100.00
81802;BME280;71199;52.490;5.448;2024-03-23T05:01:31;100938.97;;;5.29;100.00
81802;BME280;71199;52.490;5.448;2024-03-23T05:03:57;100930.38;;;5.23;100.00
81802;BME280;71199;52.490;5.448;2024-03-23T05:06:23;100924.91;;;5.23;100.00
81802;BME280;71199;52.490;5.448;2024-03-23T05:08:48;100929.34;;;5.24;100.00
81802;BME280;71199;52.490;5.448;2024-03-23T05:11:14;100929.00;;;5.08;100.00
81802;BME280;71199;52.490;5.448;2024-03-23T05:13:41;100928.00;;;5.09;100.00
81802;BME280;71199;52.490;5.448;2024-03-23T05:16:06;100933.03;;;5.14;100.00
81802;BME280;71199;52.490;5.448;2024-03-23T05:18:31;100932.78;;;5.17;100.00
81802;BME280;71199;52.490;5.448;2024-03-23T05:20:58;100930.25;;;5.25;100.00
81802;BME280;71199;52.490;5.448;2024-03-23T05:23:24;100923.56;;;5.49;100.00
81802;BME280;71199;52.490;5.448;2024-03-23T05:25:50;100933.78;;;5.56;100.00
81802;BME280;71199;52.490;5.448;2024-03-23T05:28:15;100931.97;;;5.86;100.00
81802;BME280;71199;52.490;5.448;2024-03-23T05:30:41;100918.28;;;5.97;100.00
81802;BME280;71199;52.490;5.448;2024-03-23T05:33:06;100922.44;;;6.01;100.00
81802;BME280;71199;52.490;5.448;2024-03-23T05:35:32;100925.59;;;6.07;100.00
81802;BME280;71199;52.490;5.448;2024-03-23T05:37:58;100919.72;;;6.01;100.00
81802;BME280;71199;52.490;5.448;2024-03-23T05:40:26;100921.97;;;5.96;100.00
81802;BME280;71199;52.490;5.448;2024-03-23T05:42:52;100920.28;;;5.95;100.00
81802;BME280;71199;52.490;5.448;2024-03-23T05:45:18;100921.38;;;5.83;100.00
81802;BME280;71199;52.490;5.448;2024-03-23T05:47:44;100910.00;;;5.78;100.00
81802;BME280;71199;52.490;5.448;2024-03-23T05:50:10;100916.19;;;5.80;100.00
81802;BME280;71199;52.490;5.448;2024-03-23T05:52:38;100928.50;;;5.74;100.00
81802;BME280;71199;52.490;5.448;2024-03-23T05:55:04;100920.19;;;5.76;100.00
81802;BME280;71199;52.490;5.448;2024-03-23T05:57:29;100920.19;;;5.76;100.00
81802;BME280;71199;52.490;5.448;2024-03-23T05:59:55;100911.59;;;5.80;100.00
81802;BME280;71199;52.490;5.448;2024-03-23T06:02:20;100913.31;;;5.81;100.00
81802;BME280;71199;52.490;5.448;2024-03-23T06:04:46;100916.63;;;5.75;100.00
81802;BME280;71199;52.490;5.448;2024-03-23T06:07:11;100915.03;;;5.82;100.00
81802;BME280;71199;52.490;5.448;2024-03-23T06:09:41;100913.94;;;5.95;100.00
81802;BME280;71199;52.490;5.448;2024-03-23T06:12:07;100915.38;;;5.99;100.00
81802;BME280;71199;52.490;5.448;2024-03-23T06:14:33;100913.69;;;6.08;100.00
81802;BME280;71199;52.490;5.448;2024-03-23T06:16:59;100909.38;;;6.15;100.00
81802;BME280;71199;52.490;5.448;2024-03-23T06:19:25;100915.97;;;6.12;100.00
81802;BME280;71199;52.490;5.448;2024-03-23T06:21:53;100914.69;;;6.07;100.00
81802;BME280;71199;52.490;5.448;2024-03-23T06:24:18;100906.22;;;6.10;100.00
81802;BME280;71199;52.490;5.448;2024-03-23T06:26:43;100916.41;;;6.08;100.00
81802;BME280;71199;52.490;5.448;2024-03-23T06:29:09;100917.13;;;6.10;100.00
81802;BME280;71199;52.490;5.448;2024-03-23T06:31:34;100903.63;;;6.08;100.00
81802;BME280;71199;52.490;5.448;2024-03-23T06:33:59;100914.97;;;6.03;100.00
81802;BME280;71199;52.490;5.448;2024-03-23T06:36:27;100908.22;;;5.98;100.00
81802;BME280;71199;52.490;5.448;2024-03-23T06:38:52;100918.50;;;5.94;100.00
81802;BME280;71199;52.490;5.448;2024-03-23T06:41:19;100912.19;;;5.94;100.00
81802;BME280;71199;52.490;5.448;2024-03-23T06:43:44;100914.69;;;6.07;100.00
81802;BME280;71199;52.490;5.448;2024-03-23T06:46:10;100911.38;;;6.22;100.00
81802;BME280;71199;52.490;5.448;2024-03-23T06:48:35;100906.22;;;6.39;100.00
81802;BME280;71199;52.490;5.448;2024-03-23T06:51:01;100902.03;;;6.44;100.00
81802;BME280;71199;52.490;5.448;2024-03-23T06:53:26;100911.09;;;6.55;100.00
81802;BME280;71199;52.490;5.448;2024-03-23T06:55:52;100911.63;;;6.58;100.00
81802;BME280;71199;52.490;5.448;2024-03-23T06:58:23;100909.88;;;6.67;100.00
81802;BME280;71199;52.490;5.448;2024-03-23T07:00:49;100912.75;;;6.75;100.00
81802;BME280;71199;52.490;5.448;2024-03-23T07:03:16;100904.41;;;6.77;100.00
81802;BME280;71199;52.490;5.448;2024-03-23T07:05:42;100898.38;;;6.73;100.00
81802;BME280;71199;52.490;5.448;2024-03-23T07:08:07;100906.16;;;6.58;100.00
81802;BME280;71199;52.490;5.448;2024-03-23T07:10:33;100907.63;;;6.43;100.00
81802;BME280;71199;52.490;5.448;2024-03-23T07:12:58;100909.66;;;6.31;100.00
81802;BME280;71199;52.490;5.448;2024-03-23T07:15:24;100903.63;;;6.18;100.00
81802;BME280;71199;52.490;5.448;2024-03-23T07:17:49;100904.94;;;6.14;100.00
81802;BME280;71199;52.490;5.448;2024-03-23T07:20:15;100902.78;;;6.08;100.00
81802;BME280;71199;52.490;5.448;2024-03-23T07:22:41;100910.63;;;6.01;100.00
81802;BME280;71199;52.490;5.448;2024-03-23T07:25:06;100905.06;;;6.12;100.00
81802;BME280;71199;52.490;5.448;2024-03-23T07:27:32;100898.75;;;6.12;100.00
81802;BME280;71199;52.490;5.448;2024-03-23T07:29:57;100900.47;;;6.22;100.00
81802;BME280;71199;52.490;5.448;2024-03-23T07:32:23;100901.34;;;6.42;100.00
81802;BME280;71199;52.490;5.448;2024-03-23T07:34:48;100910.63;;;6.59;100.00
81802;BME280;71199;52.490;5.448;2024-03-23T07:37:13;100912.75;;;6.75;100.00
81802;BME280;71199;52.490;5.448;2024-03-23T07:39:39;100910.59;;;6.79;100.00
81802;BME280;71199;52.490;5.448;2024-03-23T07:42:05;100911.88;;;6.84;100.00
81802;BME280;71199;52.490;5.448;2024-03-23T07:44:31;100925.09;;;6.79;100.00
81802;BME280;71199;52.490;5.448;2024-03-23T07:46:56;100919.50;;;6.71;100.00
81802;BME280;71199;52.490;5.448;2024-03-23T07:49:21;100921.56;;;6.50;100.00
81802;BME280;71199;52.490;5.448;2024-03-23T07:51:47;100914.97;;;6.42;100.00
81802;BME280;71199;52.490;5.448;2024-03-23T07:54:12;100912.22;;;6.52;100.00
81802;BME280;71199;52.490;5.448;2024-03-23T07:56:37;100915.53;;;6.56;100.00
81802;BME280;71199;52.490;5.448;2024-03-23T07:59:03;100907.91;;;6.59;100.00
81802;BME280;71199;52.490;5.448;2024-03-23T08:01:28;100915.66;;;6.54;100.00
81802;BME280;71199;52.490;5.448;2024-03-23T08:03:54;100910.50;;;6.51;100.00
81802;BME280;71199;52.490;5.448;2024-03-23T08:06:20;100909.59;;;6.80;100.00
81802;BME280;71199;52.490;5.448;2024-03-23T08:08:50;100895.88;;;6.99;100.00
81802;BME280;71199;52.490;5.448;2024-03-23T08:11:16;100902.00;;;7.11;100.00
81802;BME280;71199;52.490;5.448;2024-03-23T08:13:42;100895.94;;;7.45;100.00
81802;BME280;71199;52.490;5.448;2024-03-23T08:16:10;100901.50;;;7.81;100.00
81802;BME280;71199;52.490;5.448;2024-03-23T08:18:35;100887.63;;;8.10;100.00
81802;BME280;71199;52.490;5.448;2024-03-23T08:21:02;100897.47;;;8.21;100.00
81802;BME280;71199;52.490;5.448;2024-03-23T08:23:28;100898.31;;;8.39;100.00
81802;BME280;71199;52.490;5.448;2024-03-23T08:26:04;100892.69;;;8.59;100.00
81802;BME280;71199;52.490;5.448;2024-03-23T08:28:31;100880.00;;;8.58;100.00
81802;BME280;71199;52.490;5.448;2024-03-23T08:30:56;100891.88;;;8.93;100.00
81802;BME280;71199;52.490;5.448;2024-03-23T08:33:22;100892.22;;;9.24;100.00
81802;BME280;71199;52.490;5.448;2024-03-23T08:35:58;100892.91;;;9.60;100.00
81802;BME280;71199;52.490;5.448;2024-03-23T08:38:25;100893.50;;;9.38;100.00
81802;BME280;71199;52.490;5.448;2024-03-23T08:41:04;100904.25;;;8.97;100.00
81802;BME280;71199;52.490;5.448;2024-03-23T08:43:32;100898.69;;;8.62;100.00
81802;BME280;71199;52.490;5.448;2024-03-23T08:46:07;100917.19;;;8.24;100.00
81802;BME280;71199;52.490;5.448;2024-03-23T08:48:37;100898.38;;;8.65;100.00
81802;BME280;71199;52.490;5.448;2024-03-23T08:51:04;100889.84;;;8.95;93.01
81802;BME280;71199;52.490;5.448;2024-03-23T08:53:30;100891.38;;;9.23;92.87
81802;BME280;71199;52.490;5.448;2024-03-23T08:55:56;100893.56;;;9.54;88.89
81802;BME280;71199;52.490;5.448;2024-03-23T08:58:24;100898.16;;;9.11;86.87
81802;BME280;71199;52.490;5.448;2024-03-23T09:00:50;100903.19;;;8.90;86.47
81802;BME280;71199;52.490;5.448;2024-03-23T09:03:16;100900.50;;;8.72;87.24
81802;BME280;71199;52.490;5.448;2024-03-23T09:05:42;100909.22;;;8.49;89.28
81802;BME280;71199;52.490;5.448;2024-03-23T09:08:07;100909.00;;;8.42;87.99
81802;BME280;71199;52.490;5.448;2024-03-23T09:10:39;100904.72;;;8.66;88.61
81802;BME280;71199;52.490;5.448;2024-03-23T09:13:08;100903.94;;;9.00;89.49
81802;BME280;71199;52.490;5.448;2024-03-23T09:15:35;100900.50;;;8.72;89.32
81802;BME280;71199;52.490;5.448;2024-03-23T09:18:00;100896.06;;;8.35;90.50
81802;BME280;71199;52.490;5.448;2024-03-23T09:20:26;100901.13;;;7.94;93.56
81802;BME280;71199;52.490;5.448;2024-03-23T09:22:51;100901.19;;;7.66;95.02
81802;BME280;71199;52.490;5.448;2024-03-23T09:25:16;100902.13;;;7.47;90.09
81802;BME280;71199;52.490;5.448;2024-03-23T09:27:42;100896.69;;;7.10;88.90
81802;BME280;71199;52.490;5.448;2024-03-23T09:30:07;100895.28;;;7.05;90.51
81802;BME280;71199;52.490;5.448;2024-03-23T09:32:33;100898.69;;;7.45;93.07
81802;BME280;71199;52.490;5.448;2024-03-23T09:34:58;100895.72;;;7.66;92.59
81802;BME280;71199;52.490;5.448;2024-03-23T09:37:23;100899.88;;;7.88;93.78
81802;BME280;71199;52.490;5.448;2024-03-23T09:39:49;100901.97;;;7.94;95.86
81802;BME280;71199;52.490;5.448;2024-03-23T09:42:14;100907.81;;;8.45;93.51
81802;BME280;71199;52.490;5.448;2024-03-23T09:44:40;100903.44;;;8.78;91.86
81802;BME280;71199;52.490;5.448;2024-03-23T09:47:05;100894.97;;;8.90;90.67
81802;BME280;71199;52.490;5.448;2024-03-23T09:49:33;100886.59;;;9.25;90.22
81802;BME280;71199;52.490;5.448;2024-03-23T09:52:02;100887.16;;;9.37;90.11
81802;BME280;71199;52.490;5.448;2024-03-23T09:54:27;100891.13;;;9.43;91.77
81802;BME280;71199;52.490;5.448;2024-03-23T09:56:52;100892.69;;;9.11;89.17
81802;BME280;71199;52.490;5.448;2024-03-23T09:59:18;100874.94;;;9.23;90.04
81802;BME280;71199;52.490;5.448;2024-03-23T10:01:43;100889.66;;;9.22;89.80
81802;BME280;71199;52.490;5.448;2024-03-23T10:04:09;100877.22;;;8.76;90.53
81802;BME280;71199;52.490;5.448;2024-03-23T10:06:34;100893.78;;;8.48;93.75
81802;BME280;71199;52.490;5.448;2024-03-23T10:09:00;100896.47;;;8.22;88.45
81802;BME280;71199;52.490;5.448;2024-03-23T10:11:25;100911.41;;;8.10;88.04
81802;BME280;71199;52.490;5.448;2024-03-23T10:13:52;100888.09;;;8.41;90.68
81802;BME280;71199;52.490;5.448;2024-03-23T10:16:22;100885.53;;;8.66;89.21
81802;BME280;71199;52.490;5.448;2024-03-23T10:18:48;100884.88;;;8.90;92.36
81802;BME280;71199;52.490;5.448;2024-03-23T10:21:15;100895.13;;;8.44;93.06
81802;BME280;71199;52.490;5.448;2024-03-23T10:23:42;100896.75;;;8.19;94.08
81802;BME280;71199;52.490;5.448;2024-03-23T10:26:22;100892.47;;;8.16;95.54
81802;BME280;71199;52.490;5.448;2024-03-23T10:29:02;100891.03;;;7.94;95.38
81802;BME280;71199;52.490;5.448;2024-03-23T10:31:33;100900.97;;;7.95;99.39
81802;BME280;71199;52.490;5.448;2024-03-23T10:34:01;100893.69;;;7.86;97.80
81802;BME280;71199;52.490;5.448;2024-03-23T10:36:26;100890.34;;;7.92;96.87
81802;BME280;71199;52.490;5.448;2024-03-23T10:38:52;100894.25;;;8.07;98.05
81802;BME280;71199;52.490;5.448;2024-03-23T10:41:20;100883.69;;;7.95;92.69
81802;BME280;71199;52.490;5.448;2024-03-23T10:43:47;100889.53;;;7.82;94.22
81802;BME280;71199;52.490;5.448;2024-03-23T10:46:12;100880.56;;;7.90;95.00
81802;BME280;71199;52.490;5.448;2024-03-23T10:48:38;100877.84;;;8.07;95.86
81802;BME280;71199;52.490;5.448;2024-03-23T10:51:05;100876.44;;;8.03;96.68
81802;BME280;71199;52.490;5.448;2024-03-23T10:53:33;100881.03;;;7.85;95.26
81802;BME280;71199;52.490;5.448;2024-03-23T10:55:58;100883.38;;;7.80;96.04
81802;BME280;71199;52.490;5.448;2024-03-23T10:58:41;100892.91;;;7.76;97.03
81802;BME280;71199;52.490;5.448;2024-03-23T11:01:12;100899.97;;;7.51;100.00
81802;BME280;71199;52.490;5.448;2024-03-23T11:03:38;100885.97;;;7.26;100.00
81802;BME280;71199;52.490;5.448;2024-03-23T11:06:07;100895.63;;;7.20;100.00
81802;BME280;71199;52.490;5.448;2024-03-23T11:08:39;100887.28;;;7.22;100.00
81802;BME280;71199;52.490;5.448;2024-03-23T11:11:18;100880.25;;;7.19;100.00
81802;BME280;71199;52.490;5.448;2024-03-23T11:13:47;100880.06;;;7.31;100.00
81802;BME280;71199;52.490;5.448;2024-03-23T11:16:14;100880.66;;;7.52;100.00
81802;BME280;71199;52.490;5.448;2024-03-23T11:18:39;100869.50;;;7.63;100.00
81802;BME280;71199;52.490;5.448;2024-03-23T11:21:06;100861.88;;;7.67;100.00
81802;BME280;71199;52.490;5.448;2024-03-23T11:23:32;100870.56;;;7.80;100.00
81802;BME280;71199;52.490;5.448;2024-03-23T11:25:57;100858.84;;;8.06;100.00
81802;BME280;71199;52.490;5.448;2024-03-23T11:28:23;100863.72;;;8.56;98.29
81802;BME280;71199;52.490;5.448;2024-03-23T11:30:48;100850.38;;;8.79;92.22
81802;BME280;71199;52.490;5.448;2024-03-23T11:33:13;100873.84;;;9.08;89.90
81802;BME280;71199;52.490;5.448;2024-03-23T11:35:40;100873.00;;;8.81;89.40
81802;BME280;71199;52.490;5.448;2024-03-23T11:38:15;100886.19;;;8.42;95.45
81802;BME280;71199;52.490;5.448;2024-03-23T11:40:47;100878.91;;;7.79;95.28
81802;BME280;71199;52.490;5.448;2024-03-23T11:43:15;100875.06;;;7.54;100.00
81802;BME280;71199;52.490;5.448;2024-03-23T11:45:42;100874.13;;;7.63;100.00
81802;BME280;71199;52.490;5.448;2024-03-23T11:48:10;100858.38;;;7.75;100.00
81802;BME280;71199;52.490;5.448;2024-03-23T11:50:40;100859.13;;;7.67;100.00
81802;BME280;71199;52.490;5.448;2024-03-23T11:53:15;100860.91;;;7.58;100.00
81802;BME280;71199;52.490;5.448;2024-03-23T11:55:55;100873.09;;;7.46;100.00
81802;BME280;71199;52.490;5.448;2024-03-23T11:58:21;100887.31;;;7.12;100.00
81802;BME280;71199;52.490;5.448;2024-03-23T12:00:57;100873.13;;;6.61;100.00
81802;BME280;71199;52.490;5.448;2024-03-23T12:03:24;100871.31;;;6.33;100.00
81802;BME280;71199;52.490;5.448;2024-03-23T12:06:00;100869.88;;;6.29;100.00
81802;BME280;71199;52.490;5.448;2024-03-23T12:08:34;100867.59;;;6.14;100.00
81802;BME280;71199;52.490;5.448;2024-03-23T12:13:38;100863.94;;;5.94;100.00
81802;BME280;71199;52.490;5.448;2024-03-23T12:16:14;100850.47;;;5.83;100.00
81802;BME280;71199;52.490;5.448;2024-03-23T12:18:44;100846.72;;;5.94;100.00
81802;BME280;71199;52.490;5.448;2024-03-23T12:21:10;100846.59;;;6.24;100.00
81802;BME280;71199;52.490;5.448;2024-03-23T12:23:38;100837.88;;;6.78;100.00
81802;BME280;71199;52.490;5.448;2024-03-23T12:26:04;100835.31;;;7.32;100.00
81802;BME280;71199;52.490;5.448;2024-03-23T12:28:29;100843.94;;;7.55;100.00
81802;BME280;71199;52.490;5.448;2024-03-23T12:30:55;100827.09;;;7.77;100.00
81802;BME280;71199;52.490;5.448;2024-03-23T12:33:21;100820.06;;;7.75;100.00
81802;BME280;71199;52.490;5.448;2024-03-23T12:35:47;100825.41;;;7.76;100.00
81802;BME280;71199;52.490;5.448;2024-03-23T12:38:12;100826.94;;;7.79;100.00
81802;BME280;71199;52.490;5.448;2024-03-23T12:40:38;100834.53;;;7.85;100.00
81802;BME280;71199;52.490;5.448;2024-03-23T12:43:03;100835.78;;;7.73;100.00
81802;BME280;71199;52.490;5.448;2024-03-23T12:45:28;100839.69;;;8.06;100.00
81802;BME280;71199;52.490;5.448;2024-03-23T12:47:54;100843.81;;;8.28;100.00
81802;BME280;71199;52.490;5.448;2024-03-23T12:50:20;100833.31;;;8.41;100.00
81802;BME280;71199;52.490;5.448;2024-03-23T12:52:45;100838.47;;;8.71;100.00
81802;BME280;71199;52.490;5.448;2024-03-23T12:55:11;100834.59;;;8.73;98.37
81802;BME280;71199;52.490;5.448;2024-03-23T12:57:36;100832.75;;;8.82;95.80
81802;BME280;71199;52.490;5.448;2024-03-23T13:00:01;100830.44;;;8.69;96.75
81802;BME280;71199;52.490;5.448;2024-03-23T13:02:28;100829.16;;;8.81;98.60
81802;BME280;71199;52.490;5.448;2024-03-23T13:04:54;100832.19;;;8.78;96.94
81802;BME280;71199;52.490;5.448;2024-03-23T13:07:21;100827.31;;;8.64;96.43
81802;BME280;71199;52.490;5.448;2024-03-23T13:09:46;100835.91;;;8.43;97.05
81802;BME280;71199;52.490;5.448;2024-03-23T13:12:12;100834.09;;;8.52;98.46
81802;BME280;71199;52.490;5.448;2024-03-23T13:14:38;100835.81;;;8.53;98.38
81802;BME280;71199;52.490;5.448;2024-03-23T13:17:04;100828.53;;;8.43;97.97
81802;BME280;71199;52.490;5.448;2024-03-23T13:19:29;100839.75;;;8.32;97.54
81802;BME280;71199;52.490;5.448;2024-03-23T13:22:00;100825.72;;;8.17;97.04
81802;BME280;71199;52.490;5.448;2024-03-23T13:24:26;100820.22;;;7.91;98.06
81802;BME280;71199;52.490;5.448;2024-03-23T13:26:52;100827.63;;;7.99;97.60
81802;BME280;71199;52.490;5.448;2024-03-23T13:29:25;100824.53;;;7.94;98.50
81802;BME280;71199;52.490;5.448;2024-03-23T13:31:52;100820.31;;;7.99;98.16
81802;BME280;71199;52.490;5.448;2024-03-23T13:34:17;100821.78;;;7.94;99.34
81802;BME280;71199;52.490;5.448;2024-03-23T13:36:44;100822.94;;;8.09;98.84
81802;BME280;71199;52.490;5.448;2024-03-23T13:39:10;100825.00;;;7.89;90.37
81802;BME280;71199;52.490;5.448;2024-03-23T13:41:38;100815.38;;;7.67;90.41
81802;BME280;71199;52.490;5.448;2024-03-23T13:44:05;100812.78;;;7.65;93.77